Terminal Aerodrome Forecast
Issued by NWS

Home | Current Version | Previous Version | Text Only | Print | Product List | Glossary On
Versions: 1 2 3 4 5 6 7 8 9 10 11 12 13 14 15 16 17 18
000
FTUS46 KMFR 201731
TAFRBG
TAF
KRBG 201731Z 2018/2118 17007KT 6SM -RA BR SCT025 OVC050
      WS020/20035KT
     FM202200 17005KT 5SM RA BR OVC015 WS020/20035KT
     FM210400 18008KT 4SM RA BR OVC007
     FM211400 19002KT 3SM -RA BR OVC004=

USA.gov is the U.S. government's official web portal to all federal, state and local government web resources and services.